createdAt,value
2018-08-03T00:00:40.196Z,26.08
2018-08-03T00:01:40.113Z,26.16
2018-08-03T00:02:39.543Z,26.04
2018-08-03T00:03:42.380Z,26.00
2018-08-03T00:04:42.390Z,26.21
2018-08-03T00:05:40.452Z,26.24
2018-08-03T00:06:40.537Z,26.34
2018-08-03T00:07:40.563Z,26.29
2018-08-03T00:08:39.554Z,26.03
2018-08-03T00:09:40.253Z,26.01
2018-08-03T00:10:40.664Z,26.04
2018-08-03T00:11:39.582Z,26.03
2018-08-03T00:12:39.516Z,26.00
2018-08-03T00:13:39.464Z,25.85
2018-08-03T00:14:40.251Z,25.86
2018-08-03T00:15:39.473Z,25.75
2018-08-03T00:16:40.328Z,25.75
2018-08-03T00:17:40.224Z,25.78
2018-08-03T00:18:40.382Z,25.89
2018-08-03T00:19:41.399Z,25.85
2018-08-03T00:20:40.513Z,25.97
2018-08-03T00:21:40.753Z,25.86
2018-08-03T00:22:40.722Z,25.76
2018-08-03T00:23:40.387Z,25.69
2018-08-03T00:24:42.669Z,25.60
2018-08-03T00:25:40.928Z,25.54
2018-08-03T00:26:41.554Z,25.69
2018-08-03T00:27:41.643Z,25.82
2018-08-03T00:28:40.643Z,25.66
2018-08-03T00:29:40.600Z,25.69
2018-08-03T00:30:44.194Z,25.53
2018-08-03T00:31:39.607Z,25.54
2018-08-03T00:32:41.146Z,25.69
2018-08-03T00:33:39.814Z,25.56
2018-08-03T00:34:39.583Z,25.59
2018-08-03T00:35:40.360Z,25.53
2018-08-03T00:36:41.029Z,25.48
2018-08-03T00:37:39.535Z,25.48
2018-08-03T00:38:40.536Z,25.46
2018-08-03T00:39:40.255Z,25.49
2018-08-03T00:40:39.570Z,25.44
2018-08-03T00:41:39.547Z,25.44
2018-08-03T00:42:39.930Z,25.38
2018-08-03T00:43:39.561Z,25.35
2018-08-03T00:44:39.571Z,25.45
2018-08-03T00:45:40.321Z,25.45
2018-08-03T00:46:39.584Z,25.35
2018-08-03T00:47:39.620Z,25.46
2018-08-03T00:48:39.590Z,25.38
2018-08-03T00:49:39.582Z,25.31
2018-08-03T00:50:39.627Z,25.39
2018-08-03T00:51:40.604Z,25.31
2018-08-03T00:52:41.469Z,25.38
2018-08-03T00:53:41.317Z,25.39
2018-08-03T00:54:40.981Z,25.34
2018-08-03T00:55:40.420Z,25.30
2018-08-03T00:56:41.395Z,25.34
2018-08-03T00:57:40.216Z,25.23
2018-08-03T00:58:40.316Z,25.27
2018-08-03T00:59:40.439Z,25.30
2018-08-03T01:00:40.920Z,25.34
2018-08-03T01:01:40.308Z,25.30
2018-08-03T01:02:40.267Z,25.27
2018-08-03T01:03:40.415Z,25.31
2018-08-03T01:04:40.692Z,25.27
2018-08-03T01:05:40.701Z,25.19
2018-08-03T01:06:41.264Z,25.12
2018-08-03T01:07:40.901Z,25.14
2018-08-03T01:08:41.210Z,25.19
2018-08-03T01:09:40.327Z,25.11
2018-08-03T01:10:41.406Z,24.94
2018-08-03T01:11:40.693Z,25.14
2018-08-03T01:12:40.363Z,25.09
2018-08-03T01:13:41.252Z,25.11
2018-08-03T01:14:39.776Z,25.20
2018-08-03T01:15:40.361Z,25.11
2018-08-03T01:16:39.648Z,25.11
2018-08-03T01:17:41.248Z,25.04
2018-08-03T01:18:39.631Z,25.11
2018-08-03T01:19:40.315Z,25.04
2018-08-03T01:20:40.770Z,25.01
2018-08-03T01:21:40.321Z,25.07
2018-08-03T01:22:40.689Z,24.94
2018-08-03T01:23:40.423Z,25.01
2018-08-03T01:24:41.216Z,24.90
2018-08-03T01:25:40.426Z,25.16
2018-08-03T01:26:40.395Z,25.09
2018-08-03T01:27:40.749Z,25.11
2018-08-03T01:28:40.277Z,25.11
2018-08-03T01:29:40.741Z,25.05
2018-08-03T01:30:40.365Z,24.98
2018-08-03T01:31:40.724Z,25.04
2018-08-03T01:32:41.225Z,24.87
2018-08-03T01:33:41.220Z,24.83
2018-08-03T01:34:39.751Z,24.87
2018-08-03T01:35:40.924Z,24.93
2018-08-03T01:36:41.219Z,24.94
2018-08-03T01:37:40.974Z,24.83
2018-08-03T01:38:41.251Z,24.83
2018-08-03T01:39:40.911Z,24.79
2018-08-03T01:40:40.483Z,24.82
2018-08-03T01:41:40.807Z,24.83
2018-08-03T01:42:39.730Z,24.79
2018-08-03T01:43:40.419Z,24.75
2018-08-03T01:44:41.455Z,24.59
2018-08-03T01:45:40.443Z,24.74
2018-08-03T01:46:40.441Z,24.71
2018-08-03T01:47:40.463Z,24.68
2018-08-03T01:48:40.838Z,24.75
2018-08-03T01:49:40.883Z,24.84
2018-08-03T01:50:41.165Z,24.74
2018-08-03T01:51:40.763Z,24.71
2018-08-03T01:52:40.442Z,24.90
2018-08-03T01:53:40.401Z,24.74
2018-08-03T01:54:39.741Z,24.59
2018-08-03T01:55:40.469Z,24.51
2018-08-03T01:56:40.446Z,24.49
2018-08-03T01:57:40.916Z,24.59
2018-08-03T01:58:39.833Z,24.59
2018-08-03T01:59:41.336Z,24.80
2018-08-03T02:00:40.586Z,24.63
2018-08-03T02:01:40.579Z,24.67
2018-08-03T02:02:39.867Z,24.60
2018-08-03T02:03:40.862Z,24.56
2018-08-03T02:04:41.306Z,24.49
2018-08-03T02:05:40.883Z,24.75
2018-08-03T02:06:41.309Z,24.49
2018-08-03T02:07:40.528Z,24.55
2018-08-03T02:08:41.795Z,24.56
2018-08-03T02:09:40.878Z,24.56
2018-08-03T02:10:40.806Z,24.66
2018-08-03T02:11:40.910Z,24.63
2018-08-03T02:12:40.971Z,24.59
2018-08-03T02:13:40.065Z,24.45
2018-08-03T02:14:40.975Z,24.42
2018-08-03T02:15:40.946Z,24.49
2018-08-03T02:16:39.844Z,24.49
2018-08-03T02:17:41.166Z,24.61
2018-08-03T02:18:40.489Z,24.44
2018-08-03T02:19:39.822Z,24.42
2018-08-03T02:20:40.534Z,24.34
2018-08-03T02:21:40.835Z,24.31
2018-08-03T02:22:40.519Z,24.30
2018-08-03T02:23:40.530Z,24.34
2018-08-03T02:24:41.257Z,24.33
2018-08-03T02:25:40.836Z,24.30
2018-08-03T02:26:40.889Z,24.36
2018-08-03T02:27:40.983Z,24.34
2018-08-03T02:28:40.596Z,24.41
2018-08-03T02:29:40.584Z,24.27
2018-08-03T02:30:41.499Z,24.34
2018-08-03T02:31:40.883Z,24.33
2018-08-03T02:32:41.465Z,24.29
2018-08-03T02:33:40.594Z,24.42
2018-08-03T02:34:41.285Z,24.27
2018-08-03T02:35:40.939Z,24.33
2018-08-03T02:36:40.714Z,24.30
2018-08-03T02:37:40.938Z,24.11
2018-08-03T02:38:41.225Z,24.14
2018-08-03T02:39:39.865Z,24.19
2018-08-03T02:40:39.839Z,24.33
2018-08-03T02:41:40.899Z,24.21
2018-08-03T02:42:41.193Z,24.26
2018-08-03T02:43:40.834Z,24.26
2018-08-03T02:44:41.213Z,24.05
2018-08-03T02:45:40.994Z,24.18
2018-08-03T02:46:40.569Z,24.18
2018-08-03T02:47:41.335Z,24.15
2018-08-03T02:48:40.978Z,24.16
2018-08-03T02:49:40.999Z,24.18
2018-08-03T02:50:40.610Z,24.30
2018-08-03T02:51:40.993Z,24.26
2018-08-03T02:52:40.594Z,24.11
2018-08-03T02:53:40.952Z,24.15
2018-08-03T02:54:41.054Z,24.14
2018-08-03T02:55:40.987Z,24.19
2018-08-03T02:56:41.379Z,24.06
2018-08-03T02:57:39.976Z,23.89
2018-08-03T02:58:41.347Z,24.02
2018-08-03T02:59:40.626Z,23.93
2018-08-03T03:00:40.639Z,24.14
2018-08-03T03:01:40.939Z,23.84
2018-08-03T03:02:40.032Z,23.84
2018-08-03T03:03:39.908Z,23.89
2018-08-03T03:04:41.097Z,23.82
2018-08-03T03:05:41.129Z,23.74
2018-08-03T03:06:41.042Z,23.93
2018-08-03T03:07:41.794Z,23.87
2018-08-03T03:08:41.357Z,23.87
2018-08-03T03:09:41.349Z,23.97
2018-08-03T03:10:41.331Z,23.89
2018-08-03T03:11:41.076Z,23.67
2018-08-03T03:12:39.970Z,23.90
2018-08-03T03:13:40.658Z,23.87
2018-08-03T03:14:40.720Z,23.79
2018-08-03T03:15:39.958Z,23.67
2018-08-03T03:16:40.694Z,23.68
2018-08-03T03:17:41.326Z,23.52
2018-08-03T03:18:39.970Z,23.60
2018-08-03T03:19:41.488Z,23.79
2018-08-03T03:20:41.678Z,23.68
2018-08-03T03:21:40.658Z,23.68
2018-08-03T03:22:41.482Z,23.68
2018-08-03T03:23:40.656Z,23.63
2018-08-03T03:24:40.967Z,23.56
2018-08-03T03:25:40.634Z,23.59
2018-08-03T03:26:40.965Z,23.53
2018-08-03T03:27:39.964Z,23.69
2018-08-03T03:28:41.058Z,23.82
2018-08-03T03:29:40.968Z,23.71
2018-08-03T03:30:40.997Z,23.69
2018-08-03T03:31:40.035Z,23.82
2018-08-03T03:32:39.991Z,23.84
2018-08-03T03:33:41.242Z,23.64
2018-08-03T03:34:41.651Z,23.62
2018-08-03T03:35:40.683Z,23.60
2018-08-03T03:36:40.621Z,23.62
2018-08-03T03:37:39.957Z,23.49
2018-08-03T03:38:41.079Z,23.42
2018-08-03T03:39:40.704Z,23.54
2018-08-03T03:40:39.968Z,23.74
2018-08-03T03:41:41.044Z,23.74
2018-08-03T03:42:39.993Z,23.75
2018-08-03T03:43:41.505Z,23.75
2018-08-03T03:44:41.444Z,23.68
2018-08-03T03:45:40.057Z,23.63
2018-08-03T03:46:39.991Z,23.59
2018-08-03T03:47:39.991Z,23.63
2018-08-03T03:48:41.141Z,23.63
2018-08-03T03:49:41.175Z,23.56
2018-08-03T03:50:41.197Z,23.57
2018-08-03T03:51:41.306Z,23.72
2018-08-03T03:52:40.176Z,23.68
2018-08-03T03:53:41.094Z,23.44
2018-08-03T03:54:40.732Z,23.60
2018-08-03T03:55:41.113Z,23.54
2018-08-03T03:56:40.849Z,23.56
2018-08-03T03:57:41.490Z,23.49
2018-08-03T03:58:40.791Z,23.41
2018-08-03T03:59:40.796Z,23.39
2018-08-03T04:00:40.049Z,23.42
2018-08-03T04:01:41.815Z,23.41
2018-08-03T04:02:41.912Z,23.37
2018-08-03T04:03:41.021Z,23.45
2018-08-03T04:04:40.660Z,23.37
2018-08-03T04:05:41.043Z,23.42
2018-08-03T04:06:41.043Z,23.35
2018-08-03T04:07:41.245Z,23.44
2018-08-03T04:08:41.324Z,23.31
2018-08-03T04:09:40.744Z,23.37
2018-08-03T04:10:41.350Z,23.16
2018-08-03T04:11:41.110Z,23.37
2018-08-03T04:12:40.768Z,23.42
2018-08-03T04:13:41.225Z,23.26
2018-08-03T04:14:41.693Z,23.52
2018-08-03T04:15:41.603Z,23.45
2018-08-03T04:16:41.117Z,23.41
2018-08-03T04:17:41.316Z,23.42
2018-08-03T04:18:41.193Z,23.42
2018-08-03T04:19:41.492Z,23.50
2018-08-03T04:20:40.992Z,23.39
2018-08-03T04:21:41.149Z,23.45
2018-08-03T04:22:40.750Z,23.47
2018-08-03T04:23:41.489Z,23.39
2018-08-03T04:24:40.061Z,23.22
2018-08-03T04:25:40.165Z,23.23
2018-08-03T04:26:41.863Z,23.32
2018-08-03T04:27:41.203Z,23.35
2018-08-03T04:28:41.247Z,23.45
2018-08-03T04:29:41.269Z,23.29
2018-08-03T04:30:40.857Z,23.25
2018-08-03T04:31:40.883Z,23.21
2018-08-03T04:32:40.817Z,23.38
2018-08-03T04:33:41.280Z,23.38
2018-08-03T04:34:41.832Z,23.29
2018-08-03T04:35:41.539Z,23.21
2018-08-03T04:36:41.117Z,23.25
2018-08-03T04:37:41.425Z,23.22
2018-08-03T04:38:40.881Z,23.29
2018-08-03T04:39:43.835Z,23.38
2018-08-03T04:40:41.096Z,23.31
2018-08-03T04:41:40.070Z,23.38
2018-08-03T04:42:41.264Z,23.39
2018-08-03T04:43:41.251Z,23.38
2018-08-03T04:44:41.557Z,23.32
2018-08-03T04:45:41.511Z,23.32
2018-08-03T04:46:41.554Z,23.38
2018-08-03T04:47:41.550Z,23.39
2018-08-03T04:48:40.941Z,23.25
2018-08-03T04:49:40.721Z,23.31
2018-08-03T04:50:40.984Z,23.41
2018-08-03T04:51:40.936Z,23.31
2018-08-03T04:52:40.845Z,23.29
2018-08-03T04:53:41.406Z,23.31
2018-08-03T04:54:42.904Z,23.32
2018-08-03T04:55:41.828Z,23.34
2018-08-03T04:56:41.541Z,23.34
2018-08-03T04:57:40.764Z,23.37
2018-08-03T04:58:41.594Z,23.34
2018-08-03T04:59:41.166Z,23.37
2018-08-03T05:00:40.088Z,23.35
2018-08-03T05:01:41.114Z,23.35
2018-08-03T05:02:40.116Z,23.44
2018-08-03T05:03:40.945Z,23.32
2018-08-03T05:04:41.381Z,23.41
2018-08-03T05:05:41.238Z,23.25
2018-08-03T05:06:41.451Z,23.22
2018-08-03T05:07:42.037Z,23.38
2018-08-03T05:08:41.860Z,23.26
2018-08-03T05:09:40.853Z,23.44
2018-08-03T05:10:40.908Z,23.31
2018-08-03T05:11:41.266Z,23.42
2018-08-03T05:12:41.006Z,23.38
2018-08-03T05:13:41.387Z,23.26
2018-08-03T05:14:40.112Z,23.23
2018-08-03T05:15:41.548Z,23.26
2018-08-03T05:16:42.040Z,23.38
2018-08-03T05:17:41.129Z,23.38
2018-08-03T05:18:41.557Z,23.31
2018-08-03T05:19:40.133Z,23.35
2018-08-03T05:20:42.132Z,23.37
2018-08-03T05:21:41.245Z,23.53
2018-08-03T05:22:41.607Z,23.41
2018-08-03T05:23:40.136Z,23.37
2018-08-03T05:24:42.628Z,23.39
2018-08-03T05:25:41.235Z,23.42
2018-08-03T05:26:41.399Z,23.52
2018-08-03T05:27:41.237Z,23.52
2018-08-03T05:28:41.494Z,23.53
2018-08-03T05:29:41.648Z,23.57
2018-08-03T05:30:40.162Z,23.54
2018-08-03T05:31:40.163Z,23.44
2018-08-03T05:32:40.878Z,23.42
2018-08-03T05:33:41.356Z,23.52
2018-08-03T05:34:40.152Z,23.59
2018-08-03T05:35:41.578Z,23.69
2018-08-03T05:36:41.369Z,23.56
2018-08-03T05:37:40.188Z,23.63
2018-08-03T05:38:40.162Z,23.69
2018-08-03T05:39:40.145Z,23.79
2018-08-03T05:40:40.169Z,23.77
2018-08-03T05:41:40.247Z,23.75
2018-08-03T05:42:41.876Z,23.86
2018-08-03T05:43:40.179Z,23.96
2018-08-03T05:44:40.197Z,23.81
2018-08-03T05:45:40.181Z,23.84
2018-08-03T05:46:41.759Z,23.81
2018-08-03T05:47:40.945Z,23.96
2018-08-03T05:48:41.921Z,23.87
2018-08-03T05:49:41.576Z,23.81
2018-08-03T05:50:40.914Z,23.97
2018-08-03T05:51:41.412Z,23.94
2018-08-03T05:52:41.372Z,23.94
2018-08-03T05:53:40.913Z,23.97
2018-08-03T05:54:42.373Z,24.04
2018-08-03T05:55:41.573Z,23.96
2018-08-03T05:56:41.737Z,24.09
2018-08-03T05:57:41.251Z,24.05
2018-08-03T05:58:41.222Z,24.12
2018-08-03T05:59:41.516Z,24.15
2018-08-03T06:00:41.362Z,24.14
2018-08-03T06:01:41.564Z,24.09
2018-08-03T06:02:41.577Z,24.12
2018-08-03T06:03:41.589Z,24.19
2018-08-03T06:04:41.822Z,24.18
2018-08-03T06:05:41.544Z,24.15
2018-08-03T06:06:42.072Z,24.23
2018-08-03T06:07:42.029Z,24.24
2018-08-03T06:08:42.388Z,24.30
2018-08-03T06:09:42.435Z,24.34
2018-08-03T06:10:42.549Z,24.30
2018-08-03T06:11:42.052Z,24.34
2018-08-03T06:12:41.583Z,24.31
2018-08-03T06:13:41.570Z,24.23
2018-08-03T06:14:41.899Z,24.42
2018-08-03T06:15:41.931Z,24.33
2018-08-03T06:16:42.368Z,24.33
2018-08-03T06:17:41.328Z,24.46
2018-08-03T06:18:41.916Z,24.45
2018-08-03T06:19:42.117Z,24.53
2018-08-03T06:20:42.307Z,24.45
2018-08-03T06:21:41.863Z,24.45
2018-08-03T06:22:42.375Z,24.46
2018-08-03T06:23:41.902Z,24.56
2018-08-03T06:24:41.845Z,24.60
2018-08-03T06:25:43.728Z,24.61
2018-08-03T06:26:42.378Z,24.59
2018-08-03T06:27:42.391Z,24.61
2018-08-03T06:28:41.601Z,24.64
2018-08-03T06:29:41.944Z,24.63
2018-08-03T06:30:41.845Z,24.59
2018-08-03T06:31:41.912Z,24.59
2018-08-03T06:32:44.128Z,24.64
2018-08-03T06:33:41.923Z,24.60
2018-08-03T06:34:42.395Z,24.67
2018-08-03T06:35:42.118Z,24.66
2018-08-03T06:36:42.506Z,24.67
2018-08-03T06:37:42.099Z,24.75
2018-08-03T06:38:41.538Z,24.71
2018-08-03T06:39:42.533Z,24.83
2018-08-03T06:40:41.796Z,24.82
2018-08-03T06:41:43.751Z,24.77
2018-08-03T06:42:41.886Z,24.86
2018-08-03T06:43:40.507Z,24.89
2018-08-03T06:44:40.350Z,24.89
2018-08-03T06:45:41.603Z,24.86
2018-08-03T06:46:42.043Z,24.86
2018-08-03T06:47:42.345Z,25.04
2018-08-03T06:48:41.407Z,24.97
2018-08-03T06:49:41.225Z,25.01
2018-08-03T06:50:40.369Z,24.99
2018-08-03T06:51:42.120Z,25.02
2018-08-03T06:52:42.401Z,25.12
2018-08-03T06:53:40.344Z,25.09
2018-08-03T06:54:42.491Z,25.17
2018-08-03T06:55:40.799Z,25.05
2018-08-03T06:56:41.855Z,25.16
2018-08-03T06:57:41.408Z,25.08
2018-08-03T06:58:40.442Z,25.17
2018-08-03T06:59:40.380Z,25.24
2018-08-03T07:00:40.324Z,25.31
2018-08-03T07:01:40.318Z,25.26
2018-08-03T07:02:40.514Z,25.31
2018-08-03T07:03:40.343Z,25.29
2018-08-03T07:04:40.337Z,25.39
2018-08-03T07:05:40.383Z,25.36
2018-08-03T07:06:40.484Z,25.39
2018-08-03T07:07:41.416Z,25.35
2018-08-03T07:08:41.154Z,25.39
2018-08-03T07:09:40.708Z,25.41
2018-08-03T07:10:40.352Z,25.45
2018-08-03T07:11:40.351Z,25.48
2018-08-03T07:12:40.371Z,25.46
2018-08-03T07:13:40.394Z,25.53
2018-08-03T07:14:40.463Z,25.69
2018-08-03T07:15:40.364Z,25.69
2018-08-03T07:16:40.373Z,25.61
2018-08-03T07:17:40.362Z,25.66
2018-08-03T07:19:01.378Z,25.67
2018-08-03T07:19:42.024Z,25.74
2018-08-03T07:20:40.424Z,25.71
2018-08-03T07:21:40.377Z,25.86
2018-08-03T07:22:40.367Z,25.74
2018-08-03T07:23:40.391Z,25.82
2018-08-03T07:24:40.388Z,25.91
2018-08-03T07:25:40.433Z,25.81
2018-08-03T07:26:40.389Z,25.90
2018-08-03T07:27:40.397Z,25.96
2018-08-03T07:28:40.432Z,26.01
2018-08-03T07:29:40.383Z,26.16
2018-08-03T07:30:40.407Z,26.17
2018-08-03T07:31:40.415Z,26.06
2018-08-03T07:32:40.452Z,26.13
2018-08-03T07:33:40.765Z,26.19
2018-08-03T07:34:40.444Z,26.12
2018-08-03T07:35:40.423Z,26.21
2018-08-03T07:36:41.505Z,26.23
2018-08-03T07:37:40.407Z,26.20
2018-08-03T07:38:40.432Z,26.31
2018-08-03T07:39:40.440Z,26.35
2018-08-03T07:40:40.424Z,26.41
2018-08-03T07:41:40.425Z,26.34
2018-08-03T07:42:40.418Z,26.36
2018-08-03T07:43:40.438Z,26.38
2018-08-03T07:44:40.456Z,26.38
2018-08-03T07:45:40.436Z,26.50
2018-08-03T07:46:40.434Z,26.54
2018-08-03T07:47:40.428Z,26.53
2018-08-03T07:48:40.433Z,26.50
2018-08-03T07:49:40.452Z,26.56
2018-08-03T07:50:40.459Z,26.64
2018-08-03T07:51:40.439Z,26.76
2018-08-03T07:52:40.474Z,26.75
2018-08-03T07:53:40.438Z,26.81
2018-08-03T07:54:40.474Z,26.87
2018-08-03T07:55:40.506Z,26.87
2018-08-03T07:56:40.460Z,26.97
2018-08-03T07:57:41.653Z,26.94
2018-08-03T07:58:40.489Z,27.01
2018-08-03T07:59:40.490Z,26.90
2018-08-03T08:00:40.481Z,27.05
2018-08-03T08:01:40.476Z,27.01
2018-08-03T08:02:40.475Z,27.01
2018-08-03T08:03:40.472Z,27.05
2018-08-03T08:04:40.530Z,26.98
2018-08-03T08:05:42.275Z,27.13
2018-08-03T08:06:40.496Z,27.21
2018-08-03T08:07:40.625Z,27.23
2018-08-03T08:08:40.517Z,27.23
2018-08-03T08:09:40.569Z,27.30
2018-08-03T08:10:40.731Z,27.25
2018-08-03T08:11:40.508Z,27.35
2018-08-03T08:12:40.505Z,27.33
2018-08-03T08:13:40.561Z,27.53
2018-08-03T08:14:40.523Z,27.48
2018-08-03T08:15:40.557Z,27.48
2018-08-03T08:16:40.551Z,27.58
2018-08-03T08:17:40.575Z,27.61
2018-08-03T08:18:40.551Z,27.59
2018-08-03T08:19:40.587Z,27.55
2018-08-03T08:20:40.571Z,27.61
2018-08-03T08:21:40.579Z,27.59
2018-08-03T08:22:40.574Z,27.59
2018-08-03T08:23:40.593Z,27.66
2018-08-03T08:24:40.563Z,27.71
2018-08-03T08:25:40.548Z,27.71
2018-08-03T08:26:40.610Z,27.61
2018-08-03T08:27:40.604Z,27.68
2018-08-03T08:28:40.577Z,27.74
2018-08-03T08:29:40.622Z,27.80
2018-08-03T08:30:40.575Z,27.77
2018-08-03T08:31:40.593Z,27.83
2018-08-03T08:32:40.610Z,27.86
2018-08-03T08:33:40.613Z,27.95
2018-08-03T08:34:40.600Z,27.93
2018-08-03T08:35:40.603Z,27.98
2018-08-03T08:36:40.623Z,28.03
2018-08-03T08:37:40.632Z,28.03
2018-08-03T08:38:40.669Z,28.03
2018-08-03T08:39:40.640Z,28.09
2018-08-03T08:40:40.633Z,28.11
2018-08-03T08:41:40.635Z,28.14
2018-08-03T08:42:40.727Z,28.17
2018-08-03T08:43:40.682Z,28.06
2018-08-03T08:44:40.662Z,28.20
2018-08-03T08:45:40.621Z,28.02
2018-08-03T08:46:40.653Z,28.02
2018-08-03T08:47:40.649Z,28.13
2018-08-03T08:48:40.669Z,28.11
2018-08-03T08:49:40.878Z,28.11
2018-08-03T08:50:40.765Z,28.11
2018-08-03T08:51:40.679Z,28.06
2018-08-03T08:52:40.670Z,28.17
2018-08-03T08:53:40.682Z,28.13
2018-08-03T08:54:40.744Z,28.27
2018-08-03T08:55:40.681Z,28.28
2018-08-03T08:56:40.672Z,28.25
2018-08-03T08:57:40.691Z,28.38
2018-08-03T08:58:40.676Z,28.39
2018-08-03T08:59:41.782Z,28.48
2018-08-03T09:00:40.686Z,28.48
2018-08-03T09:01:40.699Z,28.60
2018-08-03T09:02:40.725Z,28.67
2018-08-03T09:03:40.686Z,28.65
2018-08-03T09:04:40.696Z,28.80
2018-08-03T09:05:40.739Z,28.88
2018-08-03T09:06:40.681Z,28.83
2018-08-03T09:07:40.790Z,28.74
2018-08-03T09:08:40.701Z,28.76
2018-08-03T09:09:40.698Z,28.89
2018-08-03T09:10:40.705Z,28.89
2018-08-03T09:11:42.671Z,28.83
2018-08-03T09:12:40.896Z,28.69
2018-08-03T09:13:40.986Z,28.64
2018-08-03T09:14:40.753Z,28.70
2018-08-03T09:15:41.587Z,28.64
2018-08-03T09:16:40.751Z,28.94
2018-08-03T09:17:40.771Z,28.98
2018-08-03T09:18:40.864Z,29.10
2018-08-03T09:19:40.781Z,29.08
2018-08-03T09:20:40.994Z,28.94
2018-08-03T09:21:40.843Z,29.14
2018-08-03T09:22:41.140Z,29.26
2018-08-03T09:23:40.779Z,29.29
2018-08-03T09:24:40.833Z,29.27
2018-08-03T09:25:40.824Z,29.27
2018-08-03T09:26:40.874Z,29.48
2018-08-03T09:27:41.413Z,29.39
2018-08-03T09:28:40.776Z,29.29
2018-08-03T09:29:40.779Z,29.27
2018-08-03T09:30:40.787Z,29.30
2018-08-03T09:31:40.773Z,29.30
2018-08-03T09:32:40.803Z,29.35
2018-08-03T09:33:41.420Z,29.37
2018-08-03T09:34:40.900Z,29.47
2018-08-03T09:35:40.943Z,29.58
2018-08-03T09:36:40.840Z,29.64
2018-08-03T09:37:40.872Z,29.73
2018-08-03T09:38:40.842Z,29.63
2018-08-03T09:39:40.885Z,29.88
2018-08-03T09:40:40.841Z,29.81
2018-08-03T09:41:41.007Z,29.88
2018-08-03T09:42:40.887Z,29.78
2018-08-03T09:43:40.982Z,29.76
2018-08-03T09:44:40.869Z,29.84
2018-08-03T09:45:40.840Z,29.91
2018-08-03T09:46:40.880Z,29.94
2018-08-03T09:47:41.071Z,29.99
2018-08-03T09:48:40.875Z,29.99
2018-08-03T09:49:40.877Z,29.79
2018-08-03T09:50:40.937Z,29.82
2018-08-03T09:51:40.884Z,29.67
2018-08-03T09:52:40.879Z,29.70
2018-08-03T09:53:40.869Z,29.66
2018-08-03T09:54:40.870Z,29.76
2018-08-03T09:55:41.047Z,29.88
2018-08-03T09:56:40.910Z,29.94
2018-08-03T09:57:41.189Z,30.08
2018-08-03T09:58:41.029Z,30.13
2018-08-03T09:59:41.003Z,30.16
2018-08-03T10:00:41.022Z,29.99
2018-08-03T10:01:41.098Z,30.08
2018-08-03T10:02:55.744Z,30.32
2018-08-03T10:03:40.923Z,30.45
2018-08-03T10:04:40.931Z,30.42
2018-08-03T10:05:40.912Z,30.42
2018-08-03T10:06:40.990Z,30.42
2018-08-03T10:07:41.033Z,30.40
2018-08-03T10:08:41.002Z,30.30
2018-08-03T10:09:40.945Z,30.42
2018-08-03T10:10:40.989Z,30.59
2018-08-03T10:11:40.994Z,30.48
2018-08-03T10:12:41.030Z,30.51
2018-08-03T10:13:41.042Z,30.54
2018-08-03T10:14:41.028Z,30.59
2018-08-03T10:15:41.061Z,30.57
2018-08-03T10:16:41.222Z,30.57
2018-08-03T10:17:40.994Z,30.59
2018-08-03T10:18:41.000Z,30.63
2018-08-03T10:19:40.994Z,30.86
2018-08-03T10:20:41.009Z,30.90
2018-08-03T10:21:41.032Z,30.82
2018-08-03T10:22:41.011Z,30.48
2018-08-03T10:23:41.038Z,30.44
2018-08-03T10:24:41.070Z,30.28
2018-08-03T10:25:41.040Z,30.40
2018-08-03T10:26:41.082Z,30.46
2018-08-03T10:27:42.107Z,30.57
2018-08-03T10:28:42.612Z,30.63
2018-08-03T10:29:42.279Z,30.61
2018-08-03T10:30:42.722Z,30.64
2018-08-03T10:31:42.798Z,30.75
2018-08-03T10:32:43.026Z,30.72
2018-08-03T10:33:44.196Z,30.63
2018-08-03T10:34:42.581Z,30.56
2018-08-03T10:35:42.707Z,30.90
2018-08-03T10:36:44.828Z,30.81
2018-08-03T10:37:42.237Z,30.93
2018-08-03T10:38:42.549Z,30.93
2018-08-03T10:39:43.129Z,30.78
2018-08-03T10:40:41.205Z,30.82
2018-08-03T10:41:41.134Z,30.82
2018-08-03T10:42:42.280Z,30.90
2018-08-03T10:43:42.588Z,30.97
2018-08-03T10:44:41.144Z,30.98
2018-08-03T10:45:41.190Z,30.97
2018-08-03T10:46:41.873Z,31.03
2018-08-03T10:47:41.135Z,31.27
2018-08-03T10:48:45.211Z,31.28
2018-08-03T10:49:42.820Z,31.41
2018-08-03T10:50:41.154Z,31.52
2018-08-03T10:51:41.157Z,31.40
2018-08-03T10:52:41.140Z,31.46
2018-08-03T10:53:41.179Z,31.54
2018-08-03T10:54:41.129Z,31.57
2018-08-03T10:55:44.681Z,31.59
2018-08-03T10:56:41.148Z,31.60
2018-08-03T10:57:41.275Z,31.79
2018-08-03T10:58:41.459Z,31.97
2018-08-03T10:59:41.233Z,31.79
2018-08-03T11:00:45.155Z,31.79
2018-08-03T11:02:08.830Z,32.06
2018-08-03T11:02:41.214Z,31.76
2018-08-03T11:03:41.272Z,32.07
2018-08-03T11:04:41.906Z,32.35
2018-08-03T11:05:42.386Z,32.35
2018-08-03T11:06:41.321Z,32.34
2018-08-03T11:07:41.226Z,32.36
2018-08-03T11:08:43.155Z,32.32
2018-08-03T11:09:42.720Z,32.29
2018-08-03T11:10:42.055Z,32.28
2018-08-03T11:11:42.558Z,32.29
2018-08-03T11:12:42.363Z,32.31
2018-08-03T11:13:43.851Z,32.27
2018-08-03T11:14:41.257Z,32.16
2018-08-03T11:15:42.752Z,32.19
2018-08-03T11:16:42.261Z,32.35
2018-08-03T11:17:43.204Z,32.35
2018-08-03T11:18:42.116Z,32.36
2018-08-03T11:19:42.681Z,32.41
2018-08-03T11:20:42.971Z,32.46
2018-08-03T11:21:42.364Z,32.36
2018-08-03T11:22:42.419Z,32.31
2018-08-03T11:23:42.321Z,32.36
2018-08-03T11:24:41.311Z,32.39
2018-08-03T11:25:41.296Z,32.39
2018-08-03T11:26:42.988Z,32.36
2018-08-03T11:27:42.690Z,32.58
2018-08-03T11:28:43.186Z,32.68
2018-08-03T11:29:42.743Z,32.77
2018-08-03T11:30:43.696Z,32.93
2018-08-03T11:31:42.148Z,33.09
2018-08-03T11:32:47.824Z,33.18
2018-08-03T11:33:42.930Z,33.28
2018-08-03T11:34:45.155Z,33.56
2018-08-03T11:35:42.045Z,33.53
2018-08-03T11:36:57.731Z,33.53
2018-08-03T11:37:41.365Z,33.74
2018-08-03T11:38:41.412Z,33.71
2018-08-03T11:39:41.705Z,33.84
2018-08-03T11:40:43.044Z,33.84
2018-08-03T11:41:42.664Z,33.70
2018-08-03T11:42:43.194Z,33.75
2018-08-03T11:43:42.218Z,33.77
2018-08-03T11:44:43.563Z,33.72
2018-08-03T11:45:43.154Z,33.87
2018-08-03T11:46:41.413Z,33.87
2018-08-03T11:48:42.431Z,33.99
2018-08-03T11:49:43.292Z,33.84
2018-08-03T11:50:42.455Z,33.81
2018-08-03T11:51:43.037Z,33.77
2018-08-03T11:52:43.038Z,33.94
2018-08-03T11:53:42.599Z,33.93
2018-08-03T11:54:43.001Z,34.16
2018-08-03T11:56:42.471Z,34.45
2018-08-03T11:57:42.592Z,34.52
2018-08-03T11:58:41.502Z,34.58
2018-08-03T11:59:42.617Z,34.75
2018-08-03T12:00:43.629Z,34.75
2018-08-03T12:01:43.268Z,34.78
2018-08-03T12:02:42.754Z,34.84
2018-08-03T12:03:43.139Z,35.02
2018-08-03T12:04:43.001Z,35.15
2018-08-03T12:05:42.718Z,35.21
2018-08-03T12:06:42.634Z,35.18
2018-08-03T12:07:43.107Z,35.12
2018-08-03T12:08:45.292Z,35.12
2018-08-03T12:09:42.766Z,35.36
2018-08-03T12:10:41.581Z,35.58
2018-08-03T12:11:43.123Z,35.59
2018-08-03T12:12:43.202Z,35.80
2018-08-03T12:13:43.209Z,35.87
2018-08-03T12:14:42.345Z,36.00
2018-08-03T12:15:43.288Z,35.89
2018-08-03T12:16:42.762Z,35.78
2018-08-03T12:17:49.815Z,35.92
2018-08-03T12:19:06.051Z,35.87
2018-08-03T12:19:41.722Z,36.06
2018-08-03T12:20:42.714Z,36.27
2018-08-03T12:21:45.217Z,36.13
2018-08-03T12:22:41.686Z,36.25
2018-08-03T12:23:42.895Z,36.46
2018-08-03T12:24:42.803Z,36.55
2018-08-03T12:25:43.518Z,36.48
2018-08-03T12:26:43.632Z,36.79
2018-08-03T12:27:42.797Z,36.87
2018-08-03T12:28:43.078Z,36.91
2018-08-03T12:29:45.215Z,37.15
2018-08-03T12:30:43.245Z,37.16
2018-08-03T12:31:42.579Z,37.40
2018-08-03T12:32:41.816Z,37.60
2018-08-03T12:33:42.897Z,37.56
2018-08-03T12:34:43.291Z,37.77
2018-08-03T12:35:42.636Z,37.47
2018-08-03T12:36:44.071Z,37.65
2018-08-03T12:37:43.113Z,37.91
2018-08-03T12:38:43.033Z,37.91
2018-08-03T12:39:42.955Z,37.90
2018-08-03T12:40:42.076Z,38.03
2018-08-03T12:41:44.110Z,38.38
2018-08-03T12:42:43.972Z,38.24
2018-08-03T12:43:43.572Z,38.53
2018-08-03T12:44:42.391Z,38.53
2018-08-03T12:45:42.119Z,38.93
2018-08-03T12:46:43.219Z,39.24
2018-08-03T12:47:42.908Z,39.57
2018-08-03T12:48:42.224Z,39.62
2018-08-03T12:49:42.833Z,39.50
2018-08-03T12:50:42.953Z,39.88
2018-08-03T12:51:42.240Z,39.96
2018-08-03T12:52:43.456Z,40.41
2018-08-03T12:53:42.716Z,40.02
2018-08-03T12:54:44.486Z,40.67